sensor_id;sensor_type;location;lat;lon;timestamp;pressure;altitude;pressure_sealevel;temperature;humidity
80180;BME280;69505;52.134;5.438;2023-05-07T00:01:17;101796.81;;;13.46;93.06
80180;BME280;69505;52.134;5.438;2023-05-07T00:03:45;101797.16;;;13.41;92.53
80180;BME280;69505;52.134;5.438;2023-05-07T00:06:13;101799.34;;;13.36;92.86
80180;BME280;69505;52.134;5.438;2023-05-07T00:08:39;101808.53;;;13.32;92.89
80180;BME280;69505;52.134;5.438;2023-05-07T00:11:06;101807.13;;;13.26;92.78
80180;BME280;69505;52.134;5.438;2023-05-07T00:13:32;101802.75;;;13.25;93.16
80180;BME280;69505;52.134;5.438;2023-05-07T00:16:02;101800.53;;;13.19;92.62
80180;BME280;69505;52.134;5.438;2023-05-07T00:18:29;101805.13;;;13.17;93.02
80180;BME280;69505;52.134;5.438;2023-05-07T00:20:56;101800.25;;;13.11;92.92
80180;BME280;69505;52.134;5.438;2023-05-07T00:23:22;101799.38;;;13.10;92.90
80180;BME280;69505;52.134;5.438;2023-05-07T00:25:49;101794.59;;;13.03;93.40
80180;BME280;69505;52.134;5.438;2023-05-07T00:28:16;101802.59;;;13.03;93.54
80180;BME280;69505;52.134;5.438;2023-05-07T00:30:42;101804.53;;;13.00;93.70
80180;BME280;69505;52.134;5.438;2023-05-07T00:33:09;101796.72;;;12.97;93.55
80180;BME280;69505;52.134;5.438;2023-05-07T00:35:35;101797.59;;;12.98;93.73
80180;BME280;69505;52.134;5.438;2023-05-07T00:38:02;101795.13;;;12.95;93.63
80180;BME280;69505;52.134;5.438;2023-05-07T00:40:29;101791.63;;;12.94;93.62
80180;BME280;69505;52.134;5.438;2023-05-07T00:42:55;101776.31;;;12.85;93.83
80180;BME280;69505;52.134;5.438;2023-05-07T00:45:28;101788.66;;;12.86;93.65
80180;BME280;69505;52.134;5.438;2023-05-07T00:47:57;101789.84;;;12.82;93.74
80180;BME280;69505;52.134;5.438;2023-05-07T00:50:26;101777.47;;;12.81;93.95
80180;BME280;69505;52.134;5.438;2023-05-07T00:52:53;101780.00;;;12.83;94.12
80180;BME280;69505;52.134;5.438;2023-05-07T00:55:20;101776.50;;;12.82;93.69
80180;BME280;69505;52.134;5.438;2023-05-07T00:57:47;101781.00;;;12.82;93.96
80180;BME280;69505;52.134;5.438;2023-05-07T01:00:15;101773.19;;;12.78;94.03
80180;BME280;69505;52.134;5.438;2023-05-07T01:02:42;101774.56;;;12.84;94.12
80180;BME280;69505;52.134;5.438;2023-05-07T01:05:12;101776.31;;;12.85;94.04
80180;BME280;69505;52.134;5.438;2023-05-07T01:07:41;101769.25;;;12.84;93.55
80180;BME280;69505;52.134;5.438;2023-05-07T01:10:09;101777.03;;;12.87;93.64
80180;BME280;69505;52.134;5.438;2023-05-07T01:12:37;101776.91;;;12.89;93.69
80180;BME280;69505;52.134;5.438;2023-05-07T01:15:05;101776.16;;;12.87;93.99
80180;BME280;69505;52.134;5.438;2023-05-07T01:17:36;101771.16;;;12.82;93.67
80180;BME280;69505;52.134;5.438;2023-05-07T01:20:04;101781.84;;;12.82;94.33
80180;BME280;69505;52.134;5.438;2023-05-07T01:22:35;101773.09;;;12.80;94.00
80180;BME280;69505;52.134;5.438;2023-05-07T01:25:06;101776.50;;;12.82;93.73
80180;BME280;69505;52.134;5.438;2023-05-07T01:27:34;101773.94;;;12.80;94.05
80180;BME280;69505;52.134;5.438;2023-05-07T01:30:01;101770.22;;;12.83;93.67
80180;BME280;69505;52.134;5.438;2023-05-07T01:32:48;101773.50;;;12.87;93.50
80180;BME280;69505;52.134;5.438;2023-05-07T01:35:28;101775.41;;;12.85;94.28
80180;BME280;69505;52.134;5.438;2023-05-07T01:37:56;101779.91;;;12.84;93.73
80180;BME280;69505;52.134;5.438;2023-05-07T01:40:24;101774.47;;;12.86;93.93
80180;BME280;69505;52.134;5.438;2023-05-07T01:42:51;101781.16;;;12.91;94.06
80180;BME280;69505;52.134;5.438;2023-05-07T01:45:18;101778.50;;;12.91;93.34
80180;BME280;69505;52.134;5.438;2023-05-07T01:47:45;101780.13;;;12.94;93.64
80180;BME280;69505;52.134;5.438;2023-05-07T01:50:12;101774.78;;;12.94;93.64
80180;BME280;69505;52.134;5.438;2023-05-07T01:52:40;101783.72;;;12.93;93.54
80180;BME280;69505;52.134;5.438;2023-05-07T01:55:06;101772.44;;;12.89;93.54
80180;BME280;69505;52.134;5.438;2023-05-07T01:57:33;101781.16;;;12.91;93.89
80180;BME280;69505;52.134;5.438;2023-05-07T01:59:59;101768.81;;;12.90;94.41
80180;BME280;69505;52.134;5.438;2023-05-07T02:02:26;101773.28;;;12.90;94.88
80180;BME280;69505;52.134;5.438;2023-05-07T02:04:53;101774.13;;;12.90;94.90
80180;BME280;69505;52.134;5.438;2023-05-07T02:07:19;101771.47;;;12.90;94.89
80180;BME280;69505;52.134;5.438;2023-05-07T02:09:46;101767.13;;;12.89;94.97
80180;BME280;69505;52.134;5.438;2023-05-07T02:12:12;101773.91;;;12.93;94.64
80180;BME280;69505;52.134;5.438;2023-05-07T02:14:39;101779.97;;;12.95;94.63
80180;BME280;69505;52.134;5.438;2023-05-07T02:17:05;101781.81;;;12.95;94.48
80180;BME280;69505;52.134;5.438;2023-05-07T02:19:32;101777.22;;;12.97;94.16
80180;BME280;69505;52.134;5.438;2023-05-07T02:21:58;101762.41;;;12.93;93.60
80180;BME280;69505;52.134;5.438;2023-05-07T02:24:25;101769.84;;;13.00;93.86
80180;BME280;69505;52.134;5.438;2023-05-07T02:26:51;101773.47;;;12.99;94.38
80180;BME280;69505;52.134;5.438;2023-05-07T02:29:18;101771.03;;;12.96;94.10
80180;BME280;69505;52.134;5.438;2023-05-07T02:31:44;101771.88;;;12.97;94.59
80180;BME280;69505;52.134;5.438;2023-05-07T02:34:11;101773.69;;;12.96;94.73
80180;BME280;69505;52.134;5.438;2023-05-07T02:36:37;101776.38;;;12.96;94.78
80180;BME280;69505;52.134;5.438;2023-05-07T02:39:04;101782.66;;;12.95;93.93
80180;BME280;69505;52.134;5.438;2023-05-07T02:41:30;101772.13;;;12.94;94.40
80180;BME280;69505;52.134;5.438;2023-05-07T02:43:57;101769.31;;;12.95;94.54
80180;BME280;69505;52.134;5.438;2023-05-07T02:46:24;101770.69;;;13.01;94.13
80180;BME280;69505;52.134;5.438;2023-05-07T02:48:50;101773.91;;;13.06;94.17
80180;BME280;69505;52.134;5.438;2023-05-07T02:51:21;101769.63;;;13.04;94.51
80180;BME280;69505;52.134;5.438;2023-05-07T02:53:51;101767.09;;;13.02;94.46
80180;BME280;69505;52.134;5.438;2023-05-07T02:56:17;101769.63;;;13.04;94.69
80180;BME280;69505;52.134;5.438;2023-05-07T02:58:44;101766.22;;;13.02;94.69
80180;BME280;69505;52.134;5.438;2023-05-07T03:01:10;101772.19;;;13.05;94.26
80180;BME280;69505;52.134;5.438;2023-05-07T03:03:37;101768.56;;;13.06;94.81
80180;BME280;69505;52.134;5.438;2023-05-07T03:06:04;101764.41;;;13.02;94.81
80180;BME280;69505;52.134;5.438;2023-05-07T03:08:31;101765.38;;;13.01;94.85
80180;BME280;69505;52.134;5.438;2023-05-07T03:10:57;101767.28;;;12.99;94.72
80180;BME280;69505;52.134;5.438;2023-05-07T03:13:24;101775.69;;;13.06;94.80
80180;BME280;69505;52.134;5.438;2023-05-07T03:15:51;101775.94;;;13.03;94.55
80180;BME280;69505;52.134;5.438;2023-05-07T03:18:17;101767.28;;;12.99;94.28
80180;BME280;69505;52.134;5.438;2023-05-07T03:20:44;101760.03;;;13.01;94.43
80180;BME280;69505;52.134;5.438;2023-05-07T03:23:11;101769.84;;;13.00;94.10
80180;BME280;69505;52.134;5.438;2023-05-07T03:25:37;101761.94;;;12.99;94.51
80180;BME280;69505;52.134;5.438;2023-05-07T03:28:04;101753.44;;;12.94;93.96
80180;BME280;69505;52.134;5.438;2023-05-07T03:30:30;101763.25;;;12.93;94.05
80180;BME280;69505;52.134;5.438;2023-05-07T03:32:57;101770.63;;;12.90;94.78
80180;BME280;69505;52.134;5.438;2023-05-07T03:35:23;101766.38;;;12.87;95.00
80180;BME280;69505;52.134;5.438;2023-05-07T03:37:50;101767.31;;;12.86;94.81
80180;BME280;69505;52.134;5.438;2023-05-07T03:40:17;101766.56;;;12.84;94.77
80180;BME280;69505;52.134;5.438;2023-05-07T03:42:43;101764.66;;;12.86;94.77
80180;BME280;69505;52.134;5.438;2023-05-07T03:45:10;101760.59;;;12.80;94.93
80180;BME280;69505;52.134;5.438;2023-05-07T03:47:36;101770.44;;;12.80;94.49
80180;BME280;69505;52.134;5.438;2023-05-07T03:50:03;101766.81;;;12.81;94.48
80180;BME280;69505;52.134;5.438;2023-05-07T03:52:30;101773.84;;;12.82;94.50
80180;BME280;69505;52.134;5.438;2023-05-07T03:54:57;101774.06;;;12.79;94.70
80180;BME280;69505;52.134;5.438;2023-05-07T03:57:23;101772.16;;;12.81;95.13
80180;BME280;69505;52.134;5.438;2023-05-07T03:59:50;101775.66;;;12.82;94.97
80180;BME280;69505;52.134;5.438;2023-05-07T04:02:16;101773.09;;;12.80;95.12
80180;BME280;69505;52.134;5.438;2023-05-07T04:04:43;101776.59;;;12.80;95.30
80180;BME280;69505;52.134;5.438;2023-05-07T04:07:09;101780.16;;;12.81;95.23
80180;BME280;69505;52.134;5.438;2023-05-07T04:09:36;101781.19;;;12.78;94.90
80180;BME280;69505;52.134;5.438;2023-05-07T04:12:03;101781.94;;;12.80;95.17
80180;BME280;69505;52.134;5.438;2023-05-07T04:14:29;101785.34;;;12.83;94.95
80180;BME280;69505;52.134;5.438;2023-05-07T04:16:59;101785.47;;;12.81;95.23
80180;BME280;69505;52.134;5.438;2023-05-07T04:19:25;101787.16;;;12.82;95.19
80180;BME280;69505;52.134;5.438;2023-05-07T04:21:52;101792.28;;;12.85;95.11
80180;BME280;69505;52.134;5.438;2023-05-07T04:24:21;101787.72;;;12.87;95.24
80180;BME280;69505;52.134;5.438;2023-05-07T04:26:48;101784.81;;;12.90;94.91
80180;BME280;69505;52.134;5.438;2023-05-07T04:29:14;101784.56;;;12.93;94.81
80180;BME280;69505;52.134;5.438;2023-05-07T04:31:41;101784.38;;;12.96;95.07
80180;BME280;69505;52.134;5.438;2023-05-07T04:34:11;101787.78;;;12.98;94.96
80180;BME280;69505;52.134;5.438;2023-05-07T04:36:38;101792.03;;;13.01;94.88
80180;BME280;69505;52.134;5.438;2023-05-07T04:39:04;101786.59;;;13.03;94.69
80180;BME280;69505;52.134;5.438;2023-05-07T04:41:31;101797.25;;;13.03;95.27
80180;BME280;69505;52.134;5.438;2023-05-07T04:43:59;101790.09;;;13.03;95.12
80180;BME280;69505;52.134;5.438;2023-05-07T04:46:25;101794.38;;;13.06;94.75
80180;BME280;69505;52.134;5.438;2023-05-07T04:48:52;101793.41;;;13.07;95.34
80180;BME280;69505;52.134;5.438;2023-05-07T04:51:18;101794.16;;;13.09;95.01
80180;BME280;69505;52.134;5.438;2023-05-07T04:53:45;101803.84;;;13.10;94.75
80180;BME280;69505;52.134;5.438;2023-05-07T04:56:11;101800.13;;;13.12;94.93
80180;BME280;69505;52.134;5.438;2023-05-07T04:58:38;101805.47;;;13.12;94.86
80180;BME280;69505;52.134;5.438;2023-05-07T05:01:05;101801.94;;;13.12;95.01
80180;BME280;69505;52.134;5.438;2023-05-07T05:03:32;101808.25;;;13.11;94.64
80180;BME280;69505;52.134;5.438;2023-05-07T05:05:59;101811.66;;;13.13;95.01
80180;BME280;69505;52.134;5.438;2023-05-07T05:08:29;101818.34;;;13.18;94.96
80180;BME280;69505;52.134;5.438;2023-05-07T05:10:56;101814.63;;;13.21;94.71
80180;BME280;69505;52.134;5.438;2023-05-07T05:13:23;101807.34;;;13.23;94.88
80180;BME280;69505;52.134;5.438;2023-05-07T05:15:50;101809.78;;;13.26;94.80
80180;BME280;69505;52.134;5.438;2023-05-07T05:18:16;101809.78;;;13.26;94.91
80180;BME280;69505;52.134;5.438;2023-05-07T05:20:43;101814.16;;;13.27;94.51
80180;BME280;69505;52.134;5.438;2023-05-07T05:23:10;101813.28;;;13.27;94.77
80180;BME280;69505;52.134;5.438;2023-05-07T05:25:36;101816.63;;;13.30;94.84
80180;BME280;69505;52.134;5.438;2023-05-07T05:28:03;101808.94;;;13.26;94.48
80180;BME280;69505;52.134;5.438;2023-05-07T05:30:30;101819.31;;;13.30;94.67
80180;BME280;69505;52.134;5.438;2023-05-07T05:32:56;101819.09;;;13.33;94.64
80180;BME280;69505;52.134;5.438;2023-05-07T05:35:23;101819.81;;;13.35;94.31
80180;BME280;69505;52.134;5.438;2023-05-07T05:37:49;101826.03;;;13.36;94.58
80180;BME280;69505;52.134;5.438;2023-05-07T05:40:16;101825.88;;;13.37;94.77
80180;BME280;69505;52.134;5.438;2023-05-07T05:42:42;101834.44;;;13.43;94.39
80180;BME280;69505;52.134;5.438;2023-05-07T05:45:09;101832.50;;;13.45;94.35
80180;BME280;69505;52.134;5.438;2023-05-07T05:47:37;101836.53;;;13.50;94.47
80180;BME280;69505;52.134;5.438;2023-05-07T05:50:05;101838.88;;;13.55;94.89
80180;BME280;69505;52.134;5.438;2023-05-07T05:52:32;101845.69;;;13.59;94.15
80180;BME280;69505;52.134;5.438;2023-05-07T05:54:59;101848.84;;;13.64;94.10
80180;BME280;69505;52.134;5.438;2023-05-07T05:57:25;101847.78;;;13.67;94.03
80180;BME280;69505;52.134;5.438;2023-05-07T05:59:54;101850.72;;;13.75;94.54
80180;BME280;69505;52.134;5.438;2023-05-07T06:02:21;101851.59;;;13.75;93.77
80180;BME280;69505;52.134;5.438;2023-05-07T06:04:48;101858.19;;;13.83;93.42
80180;BME280;69505;52.134;5.438;2023-05-07T06:07:14;101860.00;;;13.82;93.92
80180;BME280;69505;52.134;5.438;2023-05-07T06:09:41;101864.91;;;13.88;94.41
80180;BME280;69505;52.134;5.438;2023-05-07T06:12:07;101867.44;;;13.90;93.72
80180;BME280;69505;52.134;5.438;2023-05-07T06:14:34;101866.69;;;13.88;93.75
80180;BME280;69505;52.134;5.438;2023-05-07T06:17:00;101861.13;;;13.91;93.71
80180;BME280;69505;52.134;5.438;2023-05-07T06:19:27;101861.25;;;13.89;93.97
80180;BME280;69505;52.134;5.438;2023-05-07T06:21:54;101865.84;;;13.87;93.75
80180;BME280;69505;52.134;5.438;2023-05-07T06:24:22;101873.50;;;13.92;93.59
80180;BME280;69505;52.134;5.438;2023-05-07T06:26:49;101860.06;;;13.93;93.60
80180;BME280;69505;52.134;5.438;2023-05-07T06:29:15;101865.78;;;14.00;93.49
80180;BME280;69505;52.134;5.438;2023-05-07T06:31:42;101862.31;;;14.11;94.03
80180;BME280;69505;52.134;5.438;2023-05-07T06:34:09;101865.50;;;14.16;93.76
80180;BME280;69505;52.134;5.438;2023-05-07T06:36:36;101871.94;;;14.13;93.47
80180;BME280;69505;52.134;5.438;2023-05-07T06:39:03;101868.28;;;14.14;93.68
80180;BME280;69505;52.134;5.438;2023-05-07T06:41:29;101874.34;;;14.16;93.49
80180;BME280;69505;52.134;5.438;2023-05-07T06:43:56;101871.47;;;14.19;93.45
80180;BME280;69505;52.134;5.438;2023-05-07T06:46:22;101871.56;;;14.18;93.32
80180;BME280;69505;52.134;5.438;2023-05-07T06:48:49;101871.47;;;14.19;93.66
80180;BME280;69505;52.134;5.438;2023-05-07T06:51:21;101865.13;;;14.20;94.16
80180;BME280;69505;52.134;5.438;2023-05-07T06:53:50;101873.78;;;14.24;93.43
80180;BME280;69505;52.134;5.438;2023-05-07T06:56:17;101869.41;;;14.23;93.26
80180;BME280;69505;52.134;5.438;2023-05-07T06:58:43;101870.88;;;14.27;93.47
80180;BME280;69505;52.134;5.438;2023-05-07T07:01:10;101875.63;;;14.35;93.62
80180;BME280;69505;52.134;5.438;2023-05-07T07:03:37;101871.28;;;14.45;93.50
80180;BME280;69505;52.134;5.438;2023-05-07T07:06:03;101872.50;;;14.52;93.05
80180;BME280;69505;52.134;5.438;2023-05-07T07:08:30;101871.59;;;14.65;93.26
80180;BME280;69505;52.134;5.438;2023-05-07T07:10:57;101868.94;;;14.76;93.08
80180;BME280;69505;52.134;5.438;2023-05-07T07:13:24;101864.81;;;14.94;92.16
80180;BME280;69505;52.134;5.438;2023-05-07T07:15:51;101868.72;;;15.01;91.50
80180;BME280;69505;52.134;5.438;2023-05-07T07:18:19;101868.44;;;15.16;91.43
80180;BME280;69505;52.134;5.438;2023-05-07T07:20:46;101870.16;;;15.39;91.73
80180;BME280;69505;52.134;5.438;2023-05-07T07:23:13;101865.72;;;15.61;90.21
80180;BME280;69505;52.134;5.438;2023-05-07T07:25:40;101867.78;;;15.69;89.66
80180;BME280;69505;52.134;5.438;2023-05-07T07:28:06;101874.69;;;15.82;89.92
80180;BME280;69505;52.134;5.438;2023-05-07T07:30:33;101869.78;;;15.99;89.19
80180;BME280;69505;52.134;5.438;2023-05-07T07:33:00;101863.06;;;16.05;88.26
80180;BME280;69505;52.134;5.438;2023-05-07T07:35:32;101874.28;;;15.98;88.40
80180;BME280;69505;52.134;5.438;2023-05-07T07:37:58;101875.00;;;16.00;87.54
80180;BME280;69505;52.134;5.438;2023-05-07T07:40:25;101881.94;;;16.03;88.22
80180;BME280;69505;52.134;5.438;2023-05-07T07:42:52;101883.38;;;16.07;87.99
80180;BME280;69505;52.134;5.438;2023-05-07T07:45:19;101882.75;;;16.15;88.30
80180;BME280;69505;52.134;5.438;2023-05-07T07:47:46;101882.19;;;16.32;88.89
80180;BME280;69505;52.134;5.438;2023-05-07T07:50:13;101882.31;;;16.52;86.35
80180;BME280;69505;52.134;5.438;2023-05-07T07:52:57;101883.81;;;16.66;85.16
80180;BME280;69505;52.134;5.438;2023-05-07T07:55:23;101885.38;;;16.89;85.76
80180;BME280;69505;52.134;5.438;2023-05-07T07:57:50;101873.47;;;17.63;80.87
80180;BME280;69505;52.134;5.438;2023-05-07T08:00:17;101885.06;;;17.63;82.88
80180;BME280;69505;52.134;5.438;2023-05-07T08:02:43;101883.66;;;17.69;83.10
80180;BME280;69505;52.134;5.438;2023-05-07T08:05:10;101896.22;;;17.59;82.50
80180;BME280;69505;52.134;5.438;2023-05-07T08:07:36;101889.84;;;17.50;81.58
80180;BME280;69505;52.134;5.438;2023-05-07T08:10:03;101887.38;;;17.28;82.53
80180;BME280;69505;52.134;5.438;2023-05-07T08:12:30;101890.78;;;17.30;83.21
80180;BME280;69505;52.134;5.438;2023-05-07T08:14:57;101888.09;;;17.30;82.81
80180;BME280;69505;52.134;5.438;2023-05-07T08:17:23;101899.38;;;17.23;82.53
80180;BME280;69505;52.134;5.438;2023-05-07T08:19:50;101892.00;;;17.16;83.45
80180;BME280;69505;52.134;5.438;2023-05-07T08:22:17;101896.66;;;17.14;83.74
80180;BME280;69505;52.134;5.438;2023-05-07T08:24:44;101903.53;;;17.07;84.29
80180;BME280;69505;52.134;5.438;2023-05-07T08:27:11;101903.97;;;16.81;84.14
80180;BME280;69505;52.134;5.438;2023-05-07T08:29:38;101901.28;;;16.60;84.38
80180;BME280;69505;52.134;5.438;2023-05-07T08:32:04;101891.59;;;16.48;85.66
80180;BME280;69505;52.134;5.438;2023-05-07T08:34:31;101898.59;;;16.39;86.10
80180;BME280;69505;52.134;5.438;2023-05-07T08:36:57;101895.50;;;16.43;86.79
80180;BME280;69505;52.134;5.438;2023-05-07T08:39:24;101898.91;;;16.46;86.91
80180;BME280;69505;52.134;5.438;2023-05-07T08:41:52;101907.44;;;16.51;87.50
80180;BME280;69505;52.134;5.438;2023-05-07T08:44:22;101895.31;;;16.56;87.47
80180;BME280;69505;52.134;5.438;2023-05-07T08:46:50;101904.16;;;16.68;86.97
80180;BME280;69505;52.134;5.438;2023-05-07T08:49:20;101902.00;;;16.83;87.76
80180;BME280;69505;52.134;5.438;2023-05-07T08:51:47;101902.00;;;16.83;87.93
80180;BME280;69505;52.134;5.438;2023-05-07T08:54:16;101904.41;;;16.86;86.15
80180;BME280;69505;52.134;5.438;2023-05-07T08:56:43;101899.34;;;16.83;87.01
80180;BME280;69505;52.134;5.438;2023-05-07T08:59:09;101897.97;;;16.89;86.57
80180;BME280;69505;52.134;5.438;2023-05-07T09:01:36;101899.75;;;16.88;86.40
80180;BME280;69505;52.134;5.438;2023-05-07T09:04:03;101903.88;;;16.71;86.06
80180;BME280;69505;52.134;5.438;2023-05-07T09:06:30;101910.44;;;16.78;86.99
80180;BME280;69505;52.134;5.438;2023-05-07T09:08:57;101902.06;;;16.72;86.88
80180;BME280;69505;52.134;5.438;2023-05-07T09:11:24;101906.91;;;16.78;87.73
80180;BME280;69505;52.134;5.438;2023-05-07T09:13:56;101902.31;;;16.69;87.55
80180;BME280;69505;52.134;5.438;2023-05-07T09:16:26;101899.38;;;16.72;88.06
80180;BME280;69505;52.134;5.438;2023-05-07T09:18:54;101895.59;;;16.74;87.43
80180;BME280;69505;52.134;5.438;2023-05-07T09:21:21;101902.50;;;16.77;87.46
80180;BME280;69505;52.134;5.438;2023-05-07T09:23:50;101900.03;;;16.85;88.27
80180;BME280;69505;52.134;5.438;2023-05-07T09:26:18;101900.66;;;16.98;87.95
80180;BME280;69505;52.134;5.438;2023-05-07T09:28:44;101905.31;;;16.96;86.23
80180;BME280;69505;52.134;5.438;2023-05-07T09:31:12;101909.94;;;16.84;86.63
80180;BME280;69505;52.134;5.438;2023-05-07T09:33:39;101906.25;;;16.86;86.57
80180;BME280;69505;52.134;5.438;2023-05-07T09:36:08;101906.66;;;16.81;86.82
80180;BME280;69505;52.134;5.438;2023-05-07T09:38:36;101903.03;;;16.71;86.72
80180;BME280;69505;52.134;5.438;2023-05-07T09:41:10;101906.63;;;16.60;85.59
80180;BME280;69505;52.134;5.438;2023-05-07T09:43:40;101909.97;;;16.52;86.67
80180;BME280;69505;52.134;5.438;2023-05-07T09:46:14;101906.53;;;16.61;86.46
80180;BME280;69505;52.134;5.438;2023-05-07T09:48:43;101908.09;;;16.64;86.34
80180;BME280;69505;52.134;5.438;2023-05-07T09:51:14;101910.19;;;16.81;86.94
80180;BME280;69505;52.134;5.438;2023-05-07T09:53:43;101904.81;;;16.81;86.77
80180;BME280;69505;52.134;5.438;2023-05-07T09:56:10;101904.81;;;16.81;85.16
80180;BME280;69505;52.134;5.438;2023-05-07T09:58:39;101911.41;;;16.77;86.05
80180;BME280;69505;52.134;5.438;2023-05-07T10:01:08;101917.31;;;16.92;87.18
80180;BME280;69505;52.134;5.438;2023-05-07T10:03:36;101903.16;;;16.90;86.20
80180;BME280;69505;52.134;5.438;2023-05-07T10:06:07;101916.25;;;17.04;85.85
80180;BME280;69505;52.134;5.438;2023-05-07T10:08:34;101918.44;;;17.20;86.14
80180;BME280;69505;52.134;5.438;2023-05-07T10:11:01;101921.50;;;17.37;85.40
80180;BME280;69505;52.134;5.438;2023-05-07T10:13:29;101918.41;;;17.51;86.52
80180;BME280;69505;52.134;5.438;2023-05-07T10:15:56;101929.63;;;17.66;85.44
80180;BME280;69505;52.134;5.438;2023-05-07T10:18:24;101924.41;;;17.74;83.14
80180;BME280;69505;52.134;5.438;2023-05-07T10:21:17;101923.84;;;17.80;84.16
80180;BME280;69505;52.134;5.438;2023-05-07T10:23:45;101931.84;;;17.92;82.27
80180;BME280;69505;52.134;5.438;2023-05-07T10:26:15;101926.63;;;18.00;82.40
80180;BME280;69505;52.134;5.438;2023-05-07T10:28:47;101922.22;;;18.18;82.68
80180;BME280;69505;52.134;5.438;2023-05-07T10:31:36;101923.94;;;18.19;82.45
80180;BME280;69505;52.134;5.438;2023-05-07T10:34:11;101924.91;;;18.28;81.88
80180;BME280;69505;52.134;5.438;2023-05-07T10:36:39;101919.69;;;18.46;81.81
80180;BME280;69505;52.134;5.438;2023-05-07T10:39:06;101923.63;;;18.71;81.73
80180;BME280;69505;52.134;5.438;2023-05-07T10:41:33;101930.66;;;18.92;77.92
80180;BME280;69505;52.134;5.438;2023-05-07T10:43:59;101924.69;;;18.98;79.88
80180;BME280;69505;52.134;5.438;2023-05-07T10:46:29;101919.72;;;19.40;78.40
80180;BME280;69505;52.134;5.438;2023-05-07T10:51:28;101920.78;;;19.57;78.79
80180;BME280;69505;52.134;5.438;2023-05-07T10:56:45;101925.94;;;19.78;76.12
80180;BME280;69505;52.134;5.438;2023-05-07T10:59:30;101922.13;;;19.71;74.47
80180;BME280;69505;52.134;5.438;2023-05-07T11:01:59;101921.72;;;19.38;74.13
80180;BME280;69505;52.134;5.438;2023-05-07T11:04:29;101927.56;;;19.61;74.99
80180;BME280;69505;52.134;5.438;2023-05-07T11:15:14;101923.69;;;19.92;75.22
80180;BME280;69505;52.134;5.438;2023-05-07T11:17:57;101923.53;;;20.11;76.71
80180;BME280;69505;52.134;5.438;2023-05-07T11:26:03;101930.47;;;20.32;76.23
80180;BME280;69505;52.134;5.438;2023-05-07T11:28:30;101933.31;;;20.48;73.32
80180;BME280;69505;52.134;5.438;2023-05-07T11:30:57;101938.66;;;20.40;75.09
80180;BME280;69505;52.134;5.438;2023-05-07T11:33:24;101935.19;;;20.47;72.74
80180;BME280;69505;52.134;5.438;2023-05-07T11:35:53;101933.09;;;20.59;72.35
80180;BME280;69505;52.134;5.438;2023-05-07T11:38:20;101935.81;;;20.59;73.04
80180;BME280;69505;52.134;5.438;2023-05-07T11:40:55;101928.38;;;20.79;73.73
80180;BME280;69505;52.134;5.438;2023-05-07T11:43:22;101932.38;;;21.01;72.00
80180;BME280;69505;52.134;5.438;2023-05-07T11:45:50;101926.75;;;21.21;71.83
80180;BME280;69505;52.134;5.438;2023-05-07T11:48:17;101926.94;;;21.27;71.39
80180;BME280;69505;52.134;5.438;2023-05-07T11:50:54;101923.56;;;21.25;72.28
80180;BME280;69505;52.134;5.438;2023-05-07T11:53:26;101928.44;;;21.22;72.70
80180;BME280;69505;52.134;5.438;2023-05-07T11:55:55;101923.22;;;21.28;71.41
80180;BME280;69505;52.134;5.438;2023-05-07T11:58:23;101926.31;;;21.34;71.44
80180;BME280;69505;52.134;5.438;2023-05-07T12:00:51;101932.34;;;21.27;70.23
80180;BME280;69505;52.134;5.438;2023-05-07T12:03:17;101926.53;;;21.14;70.54
80180;BME280;69505;52.134;5.438;2023-05-07T12:05:45;101925.84;;;21.12;71.92
80180;BME280;69505;52.134;5.438;2023-05-07T12:08:19;101925.97;;;21.37;71.31
80180;BME280;69505;52.134;5.438;2023-05-07T12:10:49;101929.94;;;21.51;70.68
80180;BME280;69505;52.134;5.438;2023-05-07T12:13:20;101921.84;;;21.51;70.40
80180;BME280;69505;52.134;5.438;2023-05-07T12:15:54;101934.69;;;21.48;67.54
80180;BME280;69505;52.134;5.438;2023-05-07T12:18:22;101931.34;;;21.63;70.23
80180;BME280;69505;52.134;5.438;2023-05-07T12:20:49;101926.69;;;22.06;69.99
80180;BME280;69505;52.134;5.438;2023-05-07T12:23:17;101924.00;;;22.14;67.55
80180;BME280;69505;52.134;5.438;2023-05-07T12:25:43;101918.91;;;22.19;68.13
80180;BME280;69505;52.134;5.438;2023-05-07T12:28:14;101925.41;;;22.51;69.01
80180;BME280;69505;52.134;5.438;2023-05-07T12:30:46;101926.94;;;22.54;66.40
80180;BME280;69505;52.134;5.438;2023-05-07T12:33:18;101928.44;;;22.48;66.49
80180;BME280;69505;52.134;5.438;2023-05-07T12:35:47;101921.84;;;22.67;66.04
80180;BME280;69505;52.134;5.438;2023-05-07T12:38:16;101923.50;;;22.76;65.13
80180;BME280;69505;52.134;5.438;2023-05-07T12:40:44;101929.28;;;22.73;66.88
80180;BME280;69505;52.134;5.438;2023-05-07T12:43:33;101921.66;;;22.77;63.48
80180;BME280;69505;52.134;5.438;2023-05-07T12:46:01;101927.41;;;22.65;64.75
80180;BME280;69505;52.134;5.438;2023-05-07T12:48:29;101922.09;;;22.97;65.61
80180;BME280;69505;52.134;5.438;2023-05-07T12:50:57;101920.03;;;23.23;62.01
80180;BME280;69505;52.134;5.438;2023-05-07T12:53:25;101925.72;;;23.37;60.69
80180;BME280;69505;52.134;5.438;2023-05-07T12:55:53;101924.16;;;23.50;61.79
80180;BME280;69505;52.134;5.438;2023-05-07T13:00:50;101925.34;;;22.84;63.74
80180;BME280;69505;52.134;5.438;2023-05-07T13:03:34;101931.81;;;22.75;63.92
80180;BME280;69505;52.134;5.438;2023-05-07T13:06:06;101935.88;;;22.87;62.53
80180;BME280;69505;52.134;5.438;2023-05-07T13:08:35;101934.16;;;22.86;62.92
80180;BME280;69505;52.134;5.438;2023-05-07T13:11:04;101936.69;;;22.96;61.08
80180;BME280;69505;52.134;5.438;2023-05-07T13:13:31;101935.84;;;22.95;59.70
80180;BME280;69505;52.134;5.438;2023-05-07T13:15:58;101935.19;;;22.85;60.78